Alida, Minnesota
Current Conditions -  °F | °C
As of 9:53 AM on Friday 24 Oct 2014 (Local Time) from KBJI Reporting Station
Clear Clear  
Wind Chill: 12°   Ceiling: Unl
Heat Index: 12°   Visibility: 10mi
Dew Point:   Wind: 9mph
Humidity: 66%   Direction: 210°SSW
Pressure: 29.79"   Gusts: NA
Location:  47.4609°N, 95.2384°W
Report Text: KBJI 241453Z AUTO 21008KT 10SM CLR 12/06 A2979 RMK AO2 T01240061
Loading
Personal Weather Stations






























Interactive Weather Map
Tropical Storm Tracking
New forecast layout! Learn more

10-Day Weather Forecast

Advertisements
Track Severe Weather on mobile